createdAt,value
2022-07-29T00:00:59.904Z,41.20
2022-07-29T00:03:26.944Z,41.71
2022-07-29T00:05:54.281Z,41.71
2022-07-29T00:08:21.286Z,41.29
2022-07-29T00:10:48.336Z,42.14
2022-07-29T00:13:15.052Z,42.26
2022-07-29T00:15:41.880Z,42.78
2022-07-29T00:18:08.863Z,42.36
2022-07-29T00:20:35.587Z,42.34
2022-07-29T00:23:02.607Z,42.46
2022-07-29T00:25:29.579Z,42.54
2022-07-29T00:27:57.647Z,42.21
2022-07-29T00:30:24.347Z,41.88
2022-07-29T00:32:51.343Z,42.18
2022-07-29T00:35:36.616Z,42.50
2022-07-29T00:38:03.742Z,41.86
2022-07-29T00:40:30.536Z,42.01
2022-07-29T00:42:57.351Z,40.77
2022-07-29T00:45:26.453Z,40.86
2022-07-29T00:47:53.280Z,41.31
2022-07-29T00:50:20.124Z,40.88
2022-07-29T00:52:47.155Z,40.13
2022-07-29T00:55:14.492Z,40.13
2022-07-29T00:57:41.495Z,39.89
2022-07-29T01:00:11.102Z,38.96
2022-07-29T01:02:38.106Z,38.75
2022-07-29T01:05:05.500Z,38.38
2022-07-29T01:07:33.338Z,38.16
2022-07-29T01:10:00.205Z,38.17
2022-07-29T01:12:27.270Z,38.00
2022-07-29T01:14:54.563Z,37.93
2022-07-29T01:17:28.298Z,38.01
2022-07-29T01:20:08.803Z,37.69
2022-07-29T01:22:35.532Z,37.72
2022-07-29T01:25:13.315Z,37.52
2022-07-29T01:27:43.016Z,37.47
2022-07-29T01:30:11.415Z,37.37
2022-07-29T01:32:40.882Z,37.35
2022-07-29T01:35:11.820Z,37.60
2022-07-29T01:37:38.768Z,37.35
2022-07-29T01:40:06.346Z,37.26
2022-07-29T01:42:35.851Z,36.96
2022-07-29T01:45:05.626Z,37.24
2022-07-29T01:47:36.467Z,37.33
2022-07-29T01:50:04.885Z,37.05
2022-07-29T01:52:36.065Z,37.19
2022-07-29T01:55:06.012Z,37.17
2022-07-29T01:57:33.105Z,36.87
2022-07-29T01:59:59.879Z,37.04
2022-07-29T02:02:27.540Z,37.00
2022-07-29T02:04:54.628Z,37.23
2022-07-29T02:07:22.294Z,37.29
2022-07-29T02:09:51.308Z,37.20
2022-07-29T02:12:19.461Z,37.10
2022-07-29T02:15:07.616Z,37.03
2022-07-29T02:17:40.987Z,37.52
2022-07-29T02:20:08.174Z,37.39
2022-07-29T02:22:35.158Z,37.41
2022-07-29T02:25:03.722Z,37.17
2022-07-29T02:27:30.790Z,37.50
2022-07-29T02:29:57.529Z,37.92
2022-07-29T02:32:24.782Z,37.26
2022-07-29T02:34:51.509Z,37.48
2022-07-29T02:37:18.368Z,38.02
2022-07-29T02:39:45.784Z,38.44
2022-07-29T02:42:13.938Z,38.60
2022-07-29T02:44:40.702Z,37.96
2022-07-29T02:47:07.658Z,38.58
2022-07-29T02:49:46.833Z,39.25
2022-07-29T02:52:16.276Z,38.96
2022-07-29T02:54:47.650Z,38.94
2022-07-29T02:57:16.977Z,39.11
2022-07-29T02:59:43.719Z,38.66
2022-07-29T03:02:11.093Z,39.18
2022-07-29T03:04:38.158Z,39.10
2022-07-29T03:07:06.374Z,39.00
2022-07-29T03:09:34.162Z,38.31
2022-07-29T03:12:01.302Z,39.19
2022-07-29T03:14:28.028Z,39.05
2022-07-29T03:16:54.798Z,39.20
2022-07-29T03:19:21.791Z,38.84
2022-07-29T03:21:48.535Z,38.99
2022-07-29T03:24:34.761Z,38.87
2022-07-29T03:27:03.426Z,38.80
2022-07-29T03:29:33.846Z,39.04
2022-07-29T03:32:08.111Z,39.62
2022-07-29T03:34:35.482Z,39.31
2022-07-29T03:37:02.538Z,39.39
2022-07-29T03:39:30.952Z,38.72
2022-07-29T03:41:57.920Z,39.19
2022-07-29T03:44:25.004Z,39.44
2022-07-29T03:46:52.447Z,39.11
2022-07-29T03:49:20.061Z,38.91
2022-07-29T03:51:47.153Z,39.53
2022-07-29T03:54:13.910Z,39.56
2022-07-29T03:56:41.283Z,39.44
2022-07-29T03:59:08.360Z,39.14
2022-07-29T04:01:35.598Z,39.55
2022-07-29T04:04:02.945Z,39.60
2022-07-29T04:06:29.787Z,39.70
2022-07-29T04:08:56.533Z,40.06
2022-07-29T04:11:23.527Z,39.61
2022-07-29T04:13:50.256Z,39.42
2022-07-29T04:16:17.280Z,39.47
2022-07-29T04:18:44.340Z,40.26
2022-07-29T04:21:11.121Z,40.32
2022-07-29T04:23:53.128Z,40.47
2022-07-29T04:26:21.102Z,40.14
2022-07-29T04:28:47.908Z,39.86
2022-07-29T04:31:14.748Z,40.08
2022-07-29T04:33:41.841Z,40.02
2022-07-29T04:36:28.393Z,39.88
2022-07-29T04:38:55.816Z,40.70
2022-07-29T04:41:22.530Z,39.89
2022-07-29T04:43:50.834Z,39.75
2022-07-29T04:46:19.310Z,40.00
2022-07-29T04:48:46.798Z,39.95
2022-07-29T04:51:13.706Z,40.01
2022-07-29T04:53:40.736Z,40.20
2022-07-29T04:56:07.489Z,40.39
2022-07-29T04:58:38.377Z,40.07
2022-07-29T05:01:05.476Z,39.97
2022-07-29T05:03:32.353Z,40.38
2022-07-29T05:05:59.118Z,39.61
2022-07-29T05:08:26.101Z,39.82
2022-07-29T05:10:52.833Z,39.57
2022-07-29T05:13:19.553Z,39.90
2022-07-29T05:15:46.627Z,39.97
2022-07-29T05:18:13.951Z,39.13
2022-07-29T05:20:40.894Z,39.02
2022-07-29T05:23:07.881Z,38.96
2022-07-29T05:25:43.252Z,39.51
2022-07-29T05:28:11.276Z,39.33
2022-07-29T05:30:38.072Z,39.45
2022-07-29T05:33:04.884Z,39.27
2022-07-29T05:35:31.881Z,39.38
2022-07-29T05:37:58.672Z,38.95
2022-07-29T05:40:26.425Z,39.00
2022-07-29T05:42:53.484Z,38.70
2022-07-29T05:45:20.218Z,38.47
2022-07-29T05:47:47.084Z,38.39
2022-07-29T05:50:14.187Z,38.34
2022-07-29T05:52:40.915Z,38.08
2022-07-29T05:55:07.868Z,38.03
2022-07-29T05:57:34.867Z,37.76
2022-07-29T06:00:01.657Z,38.46
2022-07-29T06:02:28.462Z,37.91
2022-07-29T06:04:55.541Z,38.49
2022-07-29T06:07:22.554Z,38.34
2022-07-29T06:09:49.275Z,37.73
2022-07-29T06:12:16.293Z,38.10
2022-07-29T06:14:43.266Z,37.91
2022-07-29T06:17:12.620Z,38.01
2022-07-29T06:19:39.702Z,37.66
2022-07-29T06:22:06.473Z,37.73
2022-07-29T06:24:33.258Z,38.01
2022-07-29T06:27:00.277Z,38.11
2022-07-29T06:29:26.994Z,37.48
2022-07-29T06:31:53.762Z,37.53
2022-07-29T06:34:20.878Z,37.71
2022-07-29T06:36:47.669Z,37.18
2022-07-29T06:39:15.593Z,36.39
2022-07-29T06:41:42.806Z,35.82
2022-07-29T06:44:12.658Z,35.29
2022-07-29T06:46:39.684Z,34.46
2022-07-29T06:49:06.761Z,34.86
2022-07-29T06:51:33.775Z,33.78
2022-07-29T06:54:03.396Z,33.35
2022-07-29T06:56:31.757Z,32.88
2022-07-29T06:58:58.627Z,32.78
2022-07-29T07:01:25.505Z,32.57
2022-07-29T07:03:52.587Z,32.25
2022-07-29T07:06:19.354Z,32.92
2022-07-29T07:08:46.263Z,31.83
2022-07-29T07:11:14.199Z,31.72
2022-07-29T07:13:41.002Z,32.03
2022-07-29T07:16:07.817Z,31.72
2022-07-29T07:18:34.804Z,31.26
2022-07-29T07:21:01.531Z,31.33
2022-07-29T07:23:28.269Z,31.13
2022-07-29T07:25:55.274Z,32.05
2022-07-29T07:28:24.880Z,32.62
2022-07-29T07:30:52.730Z,30.86
2022-07-29T07:33:19.911Z,31.10
2022-07-29T07:35:46.811Z,30.65
2022-07-29T07:38:13.659Z,30.37
2022-07-29T07:40:41.018Z,29.11
2022-07-29T07:43:07.724Z,29.86
2022-07-29T07:45:37.001Z,30.39
2022-07-29T07:48:04.393Z,29.35
2022-07-29T07:50:31.190Z,28.19
2022-07-29T07:52:59.001Z,27.33
2022-07-29T07:55:26.584Z,28.29
2022-07-29T07:57:53.542Z,27.41
2022-07-29T08:00:23.014Z,27.91
2022-07-29T08:02:51.218Z,28.66
2022-07-29T08:05:18.407Z,27.11
2022-07-29T08:07:46.230Z,27.74
2022-07-29T08:10:13.957Z,27.08
2022-07-29T08:12:40.848Z,28.41
2022-07-29T08:15:08.693Z,26.84
2022-07-29T08:17:35.828Z,26.97
2022-07-29T08:20:02.942Z,28.89
2022-07-29T08:22:30.137Z,26.83
2022-07-29T08:24:57.841Z,26.97
2022-07-29T08:27:42.910Z,26.88
2022-07-29T08:30:11.397Z,25.76
2022-07-29T08:32:55.731Z,26.58
2022-07-29T08:35:23.812Z,26.54
2022-07-29T08:37:50.605Z,25.53
2022-07-29T08:40:17.534Z,27.06
2022-07-29T08:42:44.818Z,25.45
2022-07-29T08:45:11.707Z,25.38
2022-07-29T08:47:40.733Z,24.79
2022-07-29T08:50:08.451Z,25.17
2022-07-29T08:52:37.066Z,24.78
2022-07-29T08:55:04.233Z,25.69
2022-07-29T08:57:31.225Z,24.15
2022-07-29T09:00:06.463Z,23.96
2022-07-29T09:02:36.947Z,23.78
2022-07-29T09:05:03.901Z,23.06
2022-07-29T09:07:34.528Z,24.02
2022-07-29T09:10:02.319Z,24.12
2022-07-29T09:12:31.939Z,23.53
2022-07-29T09:15:02.150Z,24.91
2022-07-29T09:17:44.925Z,23.82
2022-07-29T09:20:12.958Z,23.59
2022-07-29T09:22:42.066Z,23.59
2022-07-29T09:25:09.411Z,23.13
2022-07-29T09:27:37.005Z,22.61
2022-07-29T09:30:05.189Z,21.72
2022-07-29T09:32:32.366Z,23.83
2022-07-29T09:35:15.553Z,23.51
2022-07-29T09:37:42.321Z,22.28
2022-07-29T09:40:16.927Z,23.58
2022-07-29T09:42:44.068Z,22.86
2022-07-29T09:45:11.410Z,23.15
2022-07-29T09:47:58.457Z,21.93
2022-07-29T09:50:35.736Z,22.31
2022-07-29T09:53:02.504Z,21.91
2022-07-29T09:55:29.521Z,22.81
2022-07-29T09:57:56.248Z,21.94
2022-07-29T10:00:24.073Z,23.02
2022-07-29T10:02:51.410Z,21.42
2022-07-29T10:05:26.141Z,21.79
2022-07-29T10:07:54.472Z,21.09
2022-07-29T10:10:27.894Z,21.83
2022-07-29T10:13:06.957Z,22.82
2022-07-29T10:15:41.793Z,21.60
2022-07-29T10:18:10.167Z,21.36
2022-07-29T10:20:36.921Z,22.35
2022-07-29T10:23:03.659Z,20.80
2022-07-29T10:25:30.688Z,19.50
2022-07-29T10:27:57.499Z,19.81
2022-07-29T10:30:25.760Z,19.42
2022-07-29T10:32:55.862Z,19.65
2022-07-29T10:35:22.608Z,19.92
2022-07-29T10:37:49.304Z,19.38
2022-07-29T10:40:43.728Z,20.82
2022-07-29T10:43:24.112Z,19.91
2022-07-29T10:45:56.306Z,19.33
2022-07-29T10:48:24.940Z,19.19
2022-07-29T10:50:56.383Z,19.41
2022-07-29T10:53:24.499Z,18.82
2022-07-29T10:55:52.914Z,19.07
2022-07-29T10:58:21.373Z,18.91
2022-07-29T11:00:49.344Z,19.53
2022-07-29T11:03:35.424Z,18.98
2022-07-29T11:06:02.784Z,20.19
2022-07-29T11:08:35.845Z,20.06
2022-07-29T11:11:22.212Z,19.53
2022-07-29T11:13:54.684Z,19.11
2022-07-29T11:16:24.982Z,18.96
2022-07-29T11:19:10.929Z,18.41
2022-07-29T11:21:55.273Z,20.55
2022-07-29T11:24:54.345Z,20.66
2022-07-29T11:27:23.140Z,20.29
2022-07-29T11:29:50.504Z,21.29
2022-07-29T11:32:22.696Z,21.96
2022-07-29T11:34:51.619Z,21.34
2022-07-29T11:37:18.959Z,20.95
2022-07-29T11:39:47.946Z,20.82
2022-07-29T11:42:28.242Z,20.32
2022-07-29T11:45:42.696Z,20.04
2022-07-29T11:48:28.693Z,19.87
2022-07-29T11:50:48.545Z,19.35
2022-07-29T11:53:16.076Z,20.06
2022-07-29T11:55:51.033Z,19.27
2022-07-29T11:58:24.985Z,20.58
2022-07-29T12:03:40.376Z,23.75
2022-07-29T12:06:15.000Z,20.67
2022-07-29T12:08:43.731Z,20.81
2022-07-29T12:11:17.876Z,21.53
2022-07-29T12:13:49.348Z,21.81
2022-07-29T12:16:29.302Z,20.95
2022-07-29T12:18:58.052Z,22.01
2022-07-29T12:21:25.790Z,20.22
2022-07-29T12:23:57.059Z,19.43
2022-07-29T12:26:29.109Z,20.19
2022-07-29T12:28:56.726Z,20.22
2022-07-29T12:31:44.032Z,18.85
2022-07-29T12:34:12.138Z,19.44
2022-07-29T12:36:38.981Z,20.29
2022-07-29T12:39:05.793Z,20.53
2022-07-29T12:41:34.280Z,20.19
2022-07-29T12:44:01.031Z,19.89
2022-07-29T12:46:27.850Z,20.17
2022-07-29T12:48:59.611Z,20.35
2022-07-29T12:51:30.879Z,20.45
2022-07-29T12:54:15.486Z,20.78
2022-07-29T12:56:45.418Z,19.88
2022-07-29T12:59:20.343Z,19.83
2022-07-29T13:01:50.604Z,19.51
2022-07-29T13:04:27.811Z,19.26
2022-07-29T13:07:06.763Z,19.09
2022-07-29T13:09:51.957Z,18.61
2022-07-29T13:12:18.703Z,19.53
2022-07-29T13:14:47.112Z,19.09
2022-07-29T13:17:15.033Z,19.42
2022-07-29T13:19:42.963Z,19.04
2022-07-29T13:22:11.055Z,18.41
2022-07-29T13:24:47.010Z,18.04
2022-07-29T13:27:18.163Z,18.63
2022-07-29T13:29:45.033Z,18.68
2022-07-29T13:32:13.089Z,18.58
2022-07-29T13:34:40.445Z,18.83
2022-07-29T13:37:07.503Z,19.71
2022-07-29T13:39:34.359Z,19.86
2022-07-29T13:42:02.043Z,19.31
2022-07-29T13:44:28.884Z,19.46
2022-07-29T13:46:55.762Z,19.55
2022-07-29T13:49:23.507Z,20.59
2022-07-29T13:51:50.486Z,19.75
2022-07-29T13:54:17.301Z,19.36
2022-07-29T13:56:44.458Z,19.59
2022-07-29T13:59:13.198Z,19.29
2022-07-29T14:01:42.672Z,19.08
2022-07-29T14:04:10.433Z,19.30
2022-07-29T14:06:40.583Z,20.43
2022-07-29T14:09:09.486Z,19.54
2022-07-29T14:11:36.787Z,20.09
2022-07-29T14:14:03.532Z,21.32
2022-07-29T14:16:30.399Z,20.39
2022-07-29T14:18:57.491Z,19.96
2022-07-29T14:21:24.199Z,19.83
2022-07-29T14:23:53.119Z,19.44
2022-07-29T14:26:21.591Z,20.64
2022-07-29T14:28:50.897Z,20.74
2022-07-29T14:31:17.786Z,20.69
2022-07-29T14:33:46.117Z,21.83
2022-07-29T14:36:16.406Z,22.76
2022-07-29T14:38:43.537Z,19.51
2022-07-29T14:41:10.679Z,21.20
2022-07-29T14:43:37.471Z,21.07
2022-07-29T14:46:08.362Z,21.37
2022-07-29T14:48:36.077Z,20.32
2022-07-29T14:51:04.871Z,20.40
2022-07-29T14:53:31.719Z,22.90
2022-07-29T14:56:10.287Z,20.10
2022-07-29T14:58:51.463Z,21.04
2022-07-29T15:01:20.101Z,20.04
2022-07-29T15:03:46.931Z,21.74
2022-07-29T15:06:13.672Z,21.37
2022-07-29T15:08:40.902Z,21.60
2022-07-29T15:11:07.668Z,21.02
2022-07-29T15:13:34.674Z,21.07
2022-07-29T15:16:01.695Z,20.86
2022-07-29T15:18:28.397Z,20.63
2022-07-29T15:20:55.146Z,21.67
2022-07-29T15:23:22.173Z,20.92
2022-07-29T15:25:49.140Z,20.52
2022-07-29T15:28:15.856Z,20.60
2022-07-29T15:30:42.976Z,20.61
2022-07-29T15:33:12.478Z,20.32
2022-07-29T15:35:40.393Z,20.52
2022-07-29T15:38:07.994Z,20.73
2022-07-29T15:40:37.163Z,20.60
2022-07-29T15:43:07.032Z,20.10
2022-07-29T15:45:40.237Z,20.09
2022-07-29T15:48:07.975Z,21.42
2022-07-29T15:50:35.324Z,21.26
2022-07-29T15:53:03.020Z,21.14
2022-07-29T15:55:29.744Z,22.66
2022-07-29T15:58:00.657Z,22.66
2022-07-29T16:00:27.676Z,22.22
2022-07-29T16:02:54.713Z,21.78
2022-07-29T16:05:23.227Z,21.70
2022-07-29T16:07:50.465Z,22.64
2022-07-29T16:10:17.474Z,22.35
2022-07-29T16:12:44.194Z,22.64
2022-07-29T16:15:12.017Z,21.26
2022-07-29T16:17:39.221Z,21.75
2022-07-29T16:20:06.563Z,21.46
2022-07-29T16:22:33.288Z,21.96
2022-07-29T16:25:00.318Z,21.85
2022-07-29T16:27:35.348Z,22.20
2022-07-29T16:30:05.646Z,22.57
2022-07-29T16:32:32.398Z,21.60
2022-07-29T16:34:59.142Z,22.01
2022-07-29T16:37:26.181Z,22.82
2022-07-29T16:39:55.604Z,23.04
2022-07-29T16:42:44.341Z,22.45
2022-07-29T16:45:09.736Z,22.02
2022-07-29T16:47:36.472Z,23.07
2022-07-29T16:50:03.537Z,22.48
2022-07-29T16:52:30.623Z,23.14
2022-07-29T16:54:57.340Z,24.38
2022-07-29T16:57:24.654Z,25.45
2022-07-29T16:59:52.100Z,25.98
2022-07-29T17:02:19.043Z,26.17
2022-07-29T17:04:45.824Z,26.38
2022-07-29T17:07:13.024Z,26.83
2022-07-29T17:09:39.803Z,27.46
2022-07-29T17:12:06.655Z,28.00
2022-07-29T17:14:33.678Z,27.59
2022-07-29T17:17:02.610Z,27.81
2022-07-29T17:19:30.844Z,28.24
2022-07-29T17:22:05.012Z,28.48
2022-07-29T17:24:35.929Z,28.94
2022-07-29T17:27:02.974Z,28.49
2022-07-29T17:29:29.738Z,28.24
2022-07-29T17:31:57.743Z,28.73
2022-07-29T17:34:24.846Z,28.99
2022-07-29T17:36:51.586Z,29.14
2022-07-29T17:39:18.342Z,30.07
2022-07-29T17:41:46.878Z,30.32
2022-07-29T17:44:13.650Z,30.76
2022-07-29T17:46:40.510Z,31.27
2022-07-29T17:49:07.645Z,31.14
2022-07-29T17:51:34.478Z,31.45
2022-07-29T17:54:01.184Z,31.74
2022-07-29T17:56:28.223Z,32.17
2022-07-29T17:58:55.167Z,32.14
2022-07-29T18:01:23.693Z,32.25
2022-07-29T18:03:50.896Z,32.80
2022-07-29T18:06:17.623Z,32.87
2022-07-29T18:08:47.524Z,32.81
2022-07-29T18:11:15.094Z,31.81
2022-07-29T18:13:42.060Z,32.44
2022-07-29T18:16:09.362Z,32.78
2022-07-29T18:18:36.472Z,33.16
2022-07-29T18:21:03.503Z,32.99
2022-07-29T18:23:30.259Z,33.14
2022-07-29T18:25:57.370Z,33.89
2022-07-29T18:28:24.265Z,33.80
2022-07-29T18:30:52.432Z,33.34
2022-07-29T18:33:22.406Z,33.57
2022-07-29T18:35:49.948Z,34.08
2022-07-29T18:38:17.066Z,34.34
2022-07-29T18:40:45.919Z,33.87
2022-07-29T18:43:13.173Z,33.76
2022-07-29T18:45:39.961Z,33.62
2022-07-29T18:48:12.703Z,34.20
2022-07-29T18:50:40.530Z,34.46
2022-07-29T18:53:07.740Z,34.50
2022-07-29T18:55:34.761Z,34.61
2022-07-29T18:58:01.546Z,34.41
2022-07-29T19:00:28.591Z,34.05
2022-07-29T19:02:56.769Z,33.96
2022-07-29T19:05:24.423Z,34.42
2022-07-29T19:07:52.086Z,34.92
2022-07-29T19:10:18.808Z,35.36
2022-07-29T19:12:45.594Z,35.83
2022-07-29T19:15:12.941Z,33.30
2022-07-29T19:17:48.026Z,33.69
2022-07-29T19:20:15.935Z,33.73
2022-07-29T19:22:45.767Z,33.14
2022-07-29T19:25:15.946Z,32.98
2022-07-29T19:27:42.944Z,31.69
2022-07-29T19:30:09.883Z,31.12
2022-07-29T19:32:36.980Z,33.09
2022-07-29T19:35:24.628Z,32.38
2022-07-29T19:37:52.917Z,31.87
2022-07-29T19:40:20.095Z,31.72
2022-07-29T19:42:48.312Z,31.90
2022-07-29T19:45:15.511Z,32.45
2022-07-29T19:47:42.727Z,32.40
2022-07-29T19:50:09.889Z,32.94
2022-07-29T19:52:36.965Z,32.79
2022-07-29T19:55:07.591Z,33.03
2022-07-29T19:57:40.574Z,33.46
2022-07-29T20:00:11.295Z,33.89
2022-07-29T20:02:39.359Z,33.34
2022-07-29T20:05:06.711Z,32.96
2022-07-29T20:07:33.869Z,33.52
2022-07-29T20:10:00.925Z,34.15
2022-07-29T20:12:27.684Z,33.88
2022-07-29T20:14:54.412Z,33.67
2022-07-29T20:17:22.474Z,33.41
2022-07-29T20:19:49.846Z,34.44
2022-07-29T20:22:21.072Z,34.61
2022-07-29T20:24:48.534Z,34.52
2022-07-29T20:27:15.359Z,34.68
2022-07-29T20:29:42.095Z,34.55
2022-07-29T20:32:09.143Z,35.35
2022-07-29T20:34:35.978Z,35.08
2022-07-29T20:37:03.786Z,35.18
2022-07-29T20:39:30.840Z,35.52
2022-07-29T20:41:57.624Z,34.45
2022-07-29T20:44:24.469Z,34.74
2022-07-29T20:46:51.570Z,35.28
2022-07-29T20:49:18.462Z,35.10
2022-07-29T20:51:45.315Z,34.88
2022-07-29T20:54:12.531Z,35.34
2022-07-29T20:56:39.495Z,35.36
2022-07-29T20:59:06.358Z,35.69
2022-07-29T21:01:33.575Z,35.38
2022-07-29T21:04:00.933Z,35.56
2022-07-29T21:06:27.769Z,35.24
2022-07-29T21:08:57.857Z,36.10
2022-07-29T21:11:42.867Z,34.99
2022-07-29T21:14:41.291Z,34.63
2022-07-29T21:17:08.302Z,35.30
2022-07-29T21:19:35.701Z,35.86
2022-07-29T21:22:04.569Z,34.50
2022-07-29T21:24:31.377Z,35.46
2022-07-29T21:27:21.474Z,35.46
2022-07-29T21:29:48.730Z,36.65
2022-07-29T21:32:29.868Z,35.94
2022-07-29T21:34:57.903Z,35.50
2022-07-29T21:37:25.000Z,36.07
2022-07-29T21:39:51.781Z,36.85
2022-07-29T21:42:18.571Z,35.83
2022-07-29T21:44:45.567Z,36.12
2022-07-29T21:47:12.414Z,35.90
2022-07-29T21:49:39.326Z,36.44
2022-07-29T21:52:07.901Z,36.92
2022-07-29T21:54:35.036Z,36.71
2022-07-29T21:57:02.929Z,36.95
2022-07-29T21:59:30.600Z,37.34
2022-07-29T22:02:00.881Z,37.46
2022-07-29T22:04:29.334Z,38.05
2022-07-29T22:06:56.344Z,37.16
2022-07-29T22:09:23.382Z,37.40
2022-07-29T22:11:50.511Z,37.86
2022-07-29T22:14:18.365Z,37.78
2022-07-29T22:16:45.762Z,38.32
2022-07-29T22:19:12.955Z,38.30
2022-07-29T22:21:39.884Z,38.14
2022-07-29T22:24:06.919Z,38.63
2022-07-29T22:26:36.712Z,38.93
2022-07-29T22:29:03.588Z,38.38
2022-07-29T22:31:30.319Z,38.34
2022-07-29T22:33:57.377Z,38.90
2022-07-29T22:36:24.122Z,39.25
2022-07-29T22:38:52.129Z,39.12
2022-07-29T22:41:19.239Z,39.36
2022-07-29T22:43:45.980Z,39.55
2022-07-29T22:46:12.759Z,39.18
2022-07-29T22:48:39.856Z,39.91
2022-07-29T22:51:06.650Z,39.60
2022-07-29T22:53:33.490Z,39.63
2022-07-29T22:56:00.460Z,39.88
2022-07-29T22:58:27.203Z,40.08
2022-07-29T23:00:54.157Z,40.51
2022-07-29T23:03:21.485Z,40.84
2022-07-29T23:05:48.398Z,40.34
2022-07-29T23:08:15.108Z,40.38
2022-07-29T23:10:42.100Z,40.14
2022-07-29T23:13:08.816Z,41.06
2022-07-29T23:15:35.557Z,40.62
2022-07-29T23:18:02.573Z,40.15
2022-07-29T23:20:29.303Z,40.32
2022-07-29T23:22:56.079Z,40.82
2022-07-29T23:25:24.404Z,40.26
2022-07-29T23:27:51.151Z,40.51
2022-07-29T23:30:17.919Z,40.11
2022-07-29T23:32:44.925Z,40.26
2022-07-29T23:35:11.684Z,40.33
2022-07-29T23:37:38.442Z,40.51
2022-07-29T23:40:06.627Z,40.52
2022-07-29T23:42:38.441Z,41.36
2022-07-29T23:45:05.790Z,40.76
2022-07-29T23:47:32.537Z,41.09
2022-07-29T23:49:59.638Z,40.84
2022-07-29T23:52:26.744Z,41.42
2022-07-29T23:54:53.639Z,41.47
2022-07-29T23:57:24.416Z,41.75
2022-07-29T23:59:51.465Z,41.62
